GMMX/RAK METAR and TAF weather

Enter ICAO airport designator
Station Type Date Time Source
GMMX METAR 2019/06/25 00:00 UTC NOAA

GMMX 250000Z 23008KT CAVOK 21/14 Q1017 NOSIG


Station Type Date Time Source
GMMX Decoded METAR 2019/06/25 00:00 UTC NOAA

Marrakech, Morocco (GMMX) 31-37N 008-02W 466M
Jun 24, 2019 - 08:00 PM EDT / 2019.06.25 0000 UTC
Wind: from the SW (230 degrees) at 9 MPH (8 KT):0
Visibility: greater than 7 mile(s):0
Temperature: 69 F (21 C)
Dew Point: 57 F (14 C)
Relative Humidity: 64%
Pressure (altimeter): 30.03 in. Hg (1017 hPa)
ob: GMMX 250000Z 23008KT CAVOK 21/14 Q1017 NOSIG
cycle: 0

Station Type Date Time Source
GMMX TAF 2019/06/24 18:15 UTC NOAA

TAF GMMX 241700Z 2418/2524 28006KT 8000 NSC
TEMPO 2419/2423 34016KT

Example: see airport list